sensor_id;sensor_type;location;lat;lon;timestamp;P1;durP1;ratioP1;P2;durP2;ratioP2
1164;SDS011;571;50.930;6.926;2023-02-27T03:46:00;3.93;;;3.00;;
1164;SDS011;571;50.930;6.926;2023-02-27T03:48:33;3.27;;;2.90;;
1164;SDS011;571;50.930;6.926;2023-02-27T03:51:00;5.20;;;2.57;;
1164;SDS011;571;50.930;6.926;2023-02-27T03:53:30;5.30;;;2.90;;
1164;SDS011;571;50.930;6.926;2023-02-27T03:56:01;4.68;;;3.53;;
1164;SDS011;571;50.930;6.926;2023-02-27T03:58:30;6.50;;;3.07;;
1164;SDS011;571;50.930;6.926;2023-02-27T04:00:58;3.90;;;3.03;;
1164;SDS011;571;50.930;6.926;2023-02-27T04:03:25;3.43;;;2.90;;
1164;SDS011;571;50.930;6.926;2023-02-27T04:05:53;3.63;;;2.73;;
1164;SDS011;571;50.930;6.926;2023-02-27T04:08:24;4.57;;;3.13;;
1164;SDS011;571;50.930;6.926;2023-02-27T04:11:17;3.23;;;2.93;;
1164;SDS011;571;50.930;6.926;2023-02-27T04:14:01;5.50;;;3.20;;
1164;SDS011;571;50.930;6.926;2023-02-27T04:16:42;3.70;;;2.73;;
1164;SDS011;571;50.930;6.926;2023-02-27T04:19:17;4.30;;;3.27;;
1164;SDS011;571;50.930;6.926;2023-02-27T04:22:06;4.67;;;3.10;;
1164;SDS011;571;50.930;6.926;2023-02-27T04:24:40;4.80;;;2.80;;
1164;SDS011;571;50.930;6.926;2023-02-27T04:27:18;4.47;;;3.03;;
1164;SDS011;571;50.930;6.926;2023-02-27T04:29:51;4.80;;;3.23;;
1164;SDS011;571;50.930;6.926;2023-02-27T04:32:24;8.53;;;3.73;;
1164;SDS011;571;50.930;6.926;2023-02-27T04:34:58;6.80;;;2.83;;
1164;SDS011;571;50.930;6.926;2023-02-27T04:37:28;4.93;;;2.60;;
1164;SDS011;571;50.930;6.926;2023-02-27T04:40:01;4.43;;;4.03;;
1164;SDS011;571;50.930;6.926;2023-02-27T04:42:32;3.90;;;3.40;;
1164;SDS011;571;50.930;6.926;2023-02-27T04:45:03;2.97;;;2.70;;
1164;SDS011;571;50.930;6.926;2023-02-27T04:47:35;4.80;;;3.10;;
1164;SDS011;571;50.930;6.926;2023-02-27T04:50:08;3.13;;;2.83;;
1164;SDS011;571;50.930;6.926;2023-02-27T04:52:39;4.30;;;3.30;;
1164;SDS011;571;50.930;6.926;2023-02-27T04:55:10;3.70;;;3.30;;
1164;SDS011;571;50.930;6.926;2023-02-27T04:57:41;5.10;;;2.87;;
1164;SDS011;571;50.930;6.926;2023-02-27T05:00:13;3.90;;;3.50;;
1164;SDS011;571;50.930;6.926;2023-02-27T05:02:43;4.80;;;3.70;;
1164;SDS011;571;50.930;6.926;2023-02-27T05:05:12;3.53;;;3.00;;
1164;SDS011;571;50.930;6.926;2023-02-27T05:07:43;3.90;;;3.17;;
1164;SDS011;571;50.930;6.926;2023-02-27T05:10:14;6.00;;;3.83;;
1164;SDS011;571;50.930;6.926;2023-02-27T05:12:49;4.03;;;3.60;;
1164;SDS011;571;50.930;6.926;2023-02-27T05:15:20;6.17;;;3.27;;
1164;SDS011;571;50.930;6.926;2023-02-27T05:17:54;4.85;;;2.90;;
1164;SDS011;571;50.930;6.926;2023-02-27T05:20:24;4.50;;;3.83;;
1164;SDS011;571;50.930;6.926;2023-02-27T05:22:57;5.23;;;4.23;;
1164;SDS011;571;50.930;6.926;2023-02-27T05:25:29;3.87;;;3.20;;
1164;SDS011;571;50.930;6.926;2023-02-27T05:28:01;4.53;;;3.47;;
1164;SDS011;571;50.930;6.926;2023-02-27T05:30:33;3.33;;;3.10;;
1164;SDS011;571;50.930;6.926;2023-02-27T05:33:05;10.43;;;4.30;;
1164;SDS011;571;50.930;6.926;2023-02-27T05:35:37;6.23;;;4.13;;
1164;SDS011;571;50.930;6.926;2023-02-27T05:38:10;3.87;;;3.60;;
1164;SDS011;571;50.930;6.926;2023-02-27T05:40:42;6.00;;;4.70;;
1164;SDS011;571;50.930;6.926;2023-02-27T05:43:14;5.73;;;4.70;;
1164;SDS011;571;50.930;6.926;2023-02-27T05:45:45;6.97;;;3.90;;
1164;SDS011;571;50.930;6.926;2023-02-27T05:48:20;6.23;;;4.23;;
1164;SDS011;571;50.930;6.926;2023-02-27T05:50:50;6.13;;;4.80;;
1164;SDS011;571;50.930;6.926;2023-02-27T05:53:19;5.10;;;4.60;;
1164;SDS011;571;50.930;6.926;2023-02-27T05:55:47;3.40;;;3.13;;
1164;SDS011;571;50.930;6.926;2023-02-27T05:58:17;4.60;;;4.20;;
1164;SDS011;571;50.930;6.926;2023-02-27T06:00:48;4.67;;;4.17;;
1164;SDS011;571;50.930;6.926;2023-02-27T06:03:19;4.60;;;3.97;;
1164;SDS011;571;50.930;6.926;2023-02-27T06:05:47;6.00;;;3.97;;
1164;SDS011;571;50.930;6.926;2023-02-27T06:08:17;5.20;;;4.68;;
1164;SDS011;571;50.930;6.926;2023-02-27T06:10:44;9.03;;;5.03;;
1164;SDS011;571;50.930;6.926;2023-02-27T06:13:11;5.40;;;4.77;;
1164;SDS011;571;50.930;6.926;2023-02-27T06:15:37;5.03;;;3.70;;
1164;SDS011;571;50.930;6.926;2023-02-27T06:18:04;5.00;;;4.23;;
1164;SDS011;571;50.930;6.926;2023-02-27T06:20:32;7.50;;;4.32;;
1164;SDS011;571;50.930;6.926;2023-02-27T06:22:59;4.27;;;3.90;;
1164;SDS011;571;50.930;6.926;2023-02-27T06:25:26;6.40;;;4.40;;
1164;SDS011;571;50.930;6.926;2023-02-27T06:27:52;4.65;;;3.80;;
1164;SDS011;571;50.930;6.926;2023-02-27T06:30:19;5.00;;;4.60;;
1164;SDS011;571;50.930;6.926;2023-02-27T06:32:46;5.07;;;3.97;;
1164;SDS011;571;50.930;6.926;2023-02-27T06:35:13;4.10;;;3.70;;
1164;SDS011;571;50.930;6.926;2023-02-27T06:37:41;3.70;;;3.43;;
1164;SDS011;571;50.930;6.926;2023-02-27T06:40:08;5.07;;;3.70;;
1164;SDS011;571;50.930;6.926;2023-02-27T06:42:36;7.43;;;4.35;;
1164;SDS011;571;50.930;6.926;2023-02-27T06:45:03;6.90;;;5.10;;
1164;SDS011;571;50.930;6.926;2023-02-27T06:47:31;4.10;;;3.80;;
1164;SDS011;571;50.930;6.926;2023-02-27T06:49:57;6.30;;;3.27;;
1164;SDS011;571;50.930;6.926;2023-02-27T06:52:24;7.47;;;4.53;;
1164;SDS011;571;50.930;6.926;2023-02-27T06:54:53;5.33;;;4.20;;
1164;SDS011;571;50.930;6.926;2023-02-27T06:57:19;4.20;;;3.80;;
1164;SDS011;571;50.930;6.926;2023-02-27T06:59:46;6.67;;;3.53;;
1164;SDS011;571;50.930;6.926;2023-02-27T07:02:13;6.93;;;4.30;;
1164;SDS011;571;50.930;6.926;2023-02-27T07:04:41;5.97;;;4.17;;
1164;SDS011;571;50.930;6.926;2023-02-27T07:07:08;6.47;;;4.40;;
1164;SDS011;571;50.930;6.926;2023-02-27T07:09:35;5.17;;;4.30;;
1164;SDS011;571;50.930;6.926;2023-02-27T07:12:04;4.10;;;3.70;;
1164;SDS011;571;50.930;6.926;2023-02-27T07:14:32;4.80;;;3.90;;
1164;SDS011;571;50.930;6.926;2023-02-27T07:16:59;5.30;;;3.97;;
1164;SDS011;571;50.930;6.926;2023-02-27T07:19:28;5.13;;;4.60;;
1164;SDS011;571;50.930;6.926;2023-02-27T07:21:56;6.37;;;4.33;;
1164;SDS011;571;50.930;6.926;2023-02-27T07:24:22;4.27;;;3.93;;
1164;SDS011;571;50.930;6.926;2023-02-27T07:26:49;8.70;;;4.03;;
1164;SDS011;571;50.930;6.926;2023-02-27T07:29:18;5.13;;;4.20;;
1164;SDS011;571;50.930;6.926;2023-02-27T07:31:45;4.47;;;3.50;;
1164;SDS011;571;50.930;6.926;2023-02-27T07:34:11;5.30;;;3.50;;
1164;SDS011;571;50.930;6.926;2023-02-27T07:36:39;5.40;;;4.10;;
1164;SDS011;571;50.930;6.926;2023-02-27T07:39:07;6.10;;;3.37;;
1164;SDS011;571;50.930;6.926;2023-02-27T07:41:34;3.20;;;2.93;;
1164;SDS011;571;50.930;6.926;2023-02-27T07:44:01;6.33;;;3.77;;
1164;SDS011;571;50.930;6.926;2023-02-27T07:46:29;5.10;;;4.60;;
1164;SDS011;571;50.930;6.926;2023-02-27T07:48:56;4.53;;;3.20;;
1164;SDS011;571;50.930;6.926;2023-02-27T07:51:22;3.20;;;2.87;;
1164;SDS011;571;50.930;6.926;2023-02-27T07:53:49;11.30;;;4.17;;
1164;SDS011;571;50.930;6.926;2023-02-27T07:56:16;3.90;;;3.20;;
1164;SDS011;571;50.930;6.926;2023-02-27T07:58:42;5.20;;;3.73;;
1164;SDS011;571;50.930;6.926;2023-02-27T08:01:09;4.43;;;3.40;;
1164;SDS011;571;50.930;6.926;2023-02-27T08:03:37;5.10;;;3.10;;
1164;SDS011;571;50.930;6.926;2023-02-27T08:06:04;4.40;;;3.60;;
1164;SDS011;571;50.930;6.926;2023-02-27T08:08:31;9.60;;;3.83;;
1164;SDS011;571;50.930;6.926;2023-02-27T08:10:59;3.00;;;2.60;;
1164;SDS011;571;50.930;6.926;2023-02-27T08:13:26;3.63;;;3.33;;
1164;SDS011;571;50.930;6.926;2023-02-27T08:15:52;4.40;;;4.00;;
1164;SDS011;571;50.930;6.926;2023-02-27T08:18:19;5.77;;;3.63;;
1164;SDS011;571;50.930;6.926;2023-02-27T08:20:47;4.60;;;3.07;;
1164;SDS011;571;50.930;6.926;2023-02-27T08:23:14;3.00;;;2.80;;
1164;SDS011;571;50.930;6.926;2023-02-27T08:25:40;3.70;;;2.67;;
1164;SDS011;571;50.930;6.926;2023-02-27T08:28:07;4.70;;;2.97;;
1164;SDS011;571;50.930;6.926;2023-02-27T08:30:34;8.20;;;2.70;;
1164;SDS011;571;50.930;6.926;2023-02-27T08:33:00;5.13;;;2.10;;
1164;SDS011;571;50.930;6.926;2023-02-27T08:35:28;2.57;;;2.37;;
1164;SDS011;571;50.930;6.926;2023-02-27T08:37:56;5.03;;;3.33;;
1164;SDS011;571;50.930;6.926;2023-02-27T08:40:22;2.83;;;1.80;;
1164;SDS011;571;50.930;6.926;2023-02-27T08:42:49;4.03;;;2.70;;
1164;SDS011;571;50.930;6.926;2023-02-27T08:45:16;8.97;;;2.33;;
1164;SDS011;571;50.930;6.926;2023-02-27T08:47:43;5.70;;;1.90;;
1164;SDS011;571;50.930;6.926;2023-02-27T08:50:10;2.30;;;2.03;;
1164;SDS011;571;50.930;6.926;2023-02-27T08:52:37;3.20;;;1.80;;
1164;SDS011;571;50.930;6.926;2023-02-27T08:55:06;5.70;;;2.60;;
1164;SDS011;571;50.930;6.926;2023-02-27T08:57:33;3.43;;;2.30;;
1164;SDS011;571;50.930;6.926;2023-02-27T09:00:00;3.20;;;2.20;;
1164;SDS011;571;50.930;6.926;2023-02-27T09:02:30;3.00;;;2.40;;
1164;SDS011;571;50.930;6.926;2023-02-27T09:04:56;2.47;;;2.27;;
1164;SDS011;571;50.930;6.926;2023-02-27T09:07:23;2.70;;;2.47;;
1164;SDS011;571;50.930;6.926;2023-02-27T09:09:50;4.17;;;2.30;;
1164;SDS011;571;50.930;6.926;2023-02-27T09:12:18;2.03;;;1.93;;
1164;SDS011;571;50.930;6.926;2023-02-27T09:14:44;2.00;;;1.80;;
1164;SDS011;571;50.930;6.926;2023-02-27T09:17:11;2.27;;;2.07;;
1164;SDS011;571;50.930;6.926;2023-02-27T09:19:38;4.07;;;2.20;;
1164;SDS011;571;50.930;6.926;2023-02-27T09:22:04;2.00;;;1.87;;
1164;SDS011;571;50.930;6.926;2023-02-27T09:24:31;2.60;;;2.10;;
1164;SDS011;571;50.930;6.926;2023-02-27T09:26:58;2.57;;;2.10;;
1164;SDS011;571;50.930;6.926;2023-02-27T09:29:26;2.60;;;2.40;;
1164;SDS011;571;50.930;6.926;2023-02-27T09:31:52;1.87;;;1.73;;
1164;SDS011;571;50.930;6.926;2023-02-27T09:34:19;4.17;;;2.20;;
1164;SDS011;571;50.930;6.926;2023-02-27T09:36:47;3.90;;;2.13;;
1164;SDS011;571;50.930;6.926;2023-02-27T09:39:14;2.80;;;2.33;;
1164;SDS011;571;50.930;6.926;2023-02-27T09:41:45;2.20;;;2.00;;
1164;SDS011;571;50.930;6.926;2023-02-27T09:44:23;3.30;;;2.20;;
1164;SDS011;571;50.930;6.926;2023-02-27T09:46:56;2.10;;;1.90;;
1164;SDS011;571;50.930;6.926;2023-02-27T09:49:23;2.67;;;2.20;;
1164;SDS011;571;50.930;6.926;2023-02-27T09:51:56;3.20;;;2.20;;
1164;SDS011;571;50.930;6.926;2023-02-27T09:54:24;7.13;;;2.20;;
1164;SDS011;571;50.930;6.926;2023-02-27T09:56:57;1.57;;;1.47;;
1164;SDS011;571;50.930;6.926;2023-02-27T09:59:30;2.77;;;2.00;;
1164;SDS011;571;50.930;6.926;2023-02-27T10:02:01;2.20;;;1.70;;
1164;SDS011;571;50.930;6.926;2023-02-27T10:04:39;2.57;;;1.97;;
1164;SDS011;571;50.930;6.926;2023-02-27T10:07:13;2.27;;;2.10;;
1164;SDS011;571;50.930;6.926;2023-02-27T10:09:46;3.73;;;2.27;;
1164;SDS011;571;50.930;6.926;2023-02-27T10:12:23;3.20;;;2.80;;
1164;SDS011;571;50.930;6.926;2023-02-27T10:15:03;2.80;;;2.27;;
1164;SDS011;571;50.930;6.926;2023-02-27T10:17:36;1.83;;;1.50;;
1164;SDS011;571;50.930;6.926;2023-02-27T10:20:06;6.03;;;2.13;;
1164;SDS011;571;50.930;6.926;2023-02-27T10:22:39;2.17;;;1.97;;
1164;SDS011;571;50.930;6.926;2023-02-27T10:25:11;1.90;;;1.70;;
1164;SDS011;571;50.930;6.926;2023-02-27T10:27:41;2.50;;;1.70;;
1164;SDS011;571;50.930;6.926;2023-02-27T10:30:20;2.17;;;1.63;;
1164;SDS011;571;50.930;6.926;2023-02-27T10:32:52;1.63;;;1.53;;
1164;SDS011;571;50.930;6.926;2023-02-27T10:35:25;1.30;;;1.20;;
1164;SDS011;571;50.930;6.926;2023-02-27T10:37:57;4.67;;;1.40;;
1164;SDS011;571;50.930;6.926;2023-02-27T10:40:26;0.87;;;0.83;;
1164;SDS011;571;50.930;6.926;2023-02-27T10:42:55;1.17;;;0.97;;
1164;SDS011;571;50.930;6.926;2023-02-27T10:45:25;2.27;;;1.20;;
1164;SDS011;571;50.930;6.926;2023-02-27T10:47:52;2.70;;;1.10;;
1164;SDS011;571;50.930;6.926;2023-02-27T10:50:20;4.10;;;1.20;;
1164;SDS011;571;50.930;6.926;2023-02-27T10:52:50;0.87;;;0.83;;
1164;SDS011;571;50.930;6.926;2023-02-27T10:55:21;2.03;;;0.80;;
1164;SDS011;571;50.930;6.926;2023-02-27T10:57:50;1.10;;;0.90;;
1164;SDS011;571;50.930;6.926;2023-02-27T11:00:26;1.07;;;0.87;;
1164;SDS011;571;50.930;6.926;2023-02-27T11:03:05;2.50;;;0.77;;
1164;SDS011;571;50.930;6.926;2023-02-27T11:05:33;2.30;;;0.90;;
1164;SDS011;571;50.930;6.926;2023-02-27T11:08:12;3.03;;;0.90;;
1164;SDS011;571;50.930;6.926;2023-02-27T11:10:55;0.70;;;0.60;;
1164;SDS011;571;50.930;6.926;2023-02-27T11:13:26;2.20;;;0.80;;
1164;SDS011;571;50.930;6.926;2023-02-27T11:16:05;3.47;;;1.23;;
1164;SDS011;571;50.930;6.926;2023-02-27T11:18:38;1.00;;;0.90;;
1164;SDS011;571;50.930;6.926;2023-02-27T11:21:20;1.27;;;0.97;;
1164;SDS011;571;50.930;6.926;2023-02-27T11:23:50;3.90;;;1.00;;
1164;SDS011;571;50.930;6.926;2023-02-27T11:26:20;1.50;;;1.10;;
1164;SDS011;571;50.930;6.926;2023-02-27T11:29:06;2.00;;;1.10;;
1164;SDS011;571;50.930;6.926;2023-02-27T11:31:43;1.30;;;0.87;;
1164;SDS011;571;50.930;6.926;2023-02-27T11:34:15;1.83;;;0.70;;
1164;SDS011;571;50.930;6.926;2023-02-27T11:36:46;2.13;;;1.00;;
1164;SDS011;571;50.930;6.926;2023-02-27T11:39:25;1.97;;;1.37;;
1164;SDS011;571;50.930;6.926;2023-02-27T11:41:55;4.63;;;1.00;;
1164;SDS011;571;50.930;6.926;2023-02-27T11:44:30;1.10;;;0.80;;
1164;SDS011;571;50.930;6.926;2023-02-27T11:47:11;3.10;;;0.90;;
1164;SDS011;571;50.930;6.926;2023-02-27T11:49:44;0.80;;;0.80;;
1164;SDS011;571;50.930;6.926;2023-02-27T11:52:26;1.77;;;1.20;;
1164;SDS011;571;50.930;6.926;2023-02-27T11:54:59;1.60;;;1.10;;
1164;SDS011;571;50.930;6.926;2023-02-27T11:57:29;2.10;;;1.13;;
1164;SDS011;571;50.930;6.926;2023-02-27T12:00:00;1.90;;;1.10;;
1164;SDS011;571;50.930;6.926;2023-02-27T12:02:41;1.70;;;1.03;;
1164;SDS011;571;50.930;6.926;2023-02-27T12:05:13;3.30;;;1.30;;
1164;SDS011;571;50.930;6.926;2023-02-27T12:07:43;1.23;;;0.80;;
1164;SDS011;571;50.930;6.926;2023-02-27T12:10:17;4.60;;;1.40;;
1164;SDS011;571;50.930;6.926;2023-02-27T12:12:46;2.20;;;1.23;;
1164;SDS011;571;50.930;6.926;2023-02-27T12:15:19;5.60;;;1.60;;
1164;SDS011;571;50.930;6.926;2023-02-27T12:17:53;1.77;;;1.20;;
1164;SDS011;571;50.930;6.926;2023-02-27T12:20:30;1.60;;;1.20;;
1164;SDS011;571;50.930;6.926;2023-02-27T12:23:00;1.63;;;1.10;;
1164;SDS011;571;50.930;6.926;2023-02-27T12:25:36;2.43;;;1.57;;
1164;SDS011;571;50.930;6.926;2023-02-27T12:28:10;3.73;;;1.40;;
1164;SDS011;571;50.930;6.926;2023-02-27T12:30:47;1.20;;;1.10;;
1164;SDS011;571;50.930;6.926;2023-02-27T12:33:28;3.33;;;1.97;;
1164;SDS011;571;50.930;6.926;2023-02-27T12:36:02;2.17;;;1.40;;
1164;SDS011;571;50.930;6.926;2023-02-27T12:38:30;2.40;;;1.30;;
1164;SDS011;571;50.930;6.926;2023-02-27T12:41:00;2.80;;;1.47;;
1164;SDS011;571;50.930;6.926;2023-02-27T12:43:52;2.53;;;1.90;;
1164;SDS011;571;50.930;6.926;2023-02-27T12:46:30;1.53;;;1.23;;
1164;SDS011;571;50.930;6.926;2023-02-27T12:49:12;1.53;;;1.30;;
1164;SDS011;571;50.930;6.926;2023-02-27T12:51:49;1.67;;;1.00;;
1164;SDS011;571;50.930;6.926;2023-02-27T12:54:24;1.23;;;1.00;;
1164;SDS011;571;50.930;6.926;2023-02-27T12:57:03;1.73;;;1.03;;
1164;SDS011;571;50.930;6.926;2023-02-27T12:59:50;2.63;;;1.83;;
1164;SDS011;571;50.930;6.926;2023-02-27T13:02:37;2.83;;;1.53;;
1164;SDS011;571;50.930;6.926;2023-02-27T13:05:14;2.30;;;1.30;;
1164;SDS011;571;50.930;6.926;2023-02-27T13:07:50;1.93;;;0.93;;
1164;SDS011;571;50.930;6.926;2023-02-27T13:10:26;2.80;;;1.60;;
1164;SDS011;571;50.930;6.926;2023-02-27T13:12:58;1.17;;;1.07;;
1164;SDS011;571;50.930;6.926;2023-02-27T13:15:32;1.70;;;1.40;;
1164;SDS011;571;50.930;6.926;2023-02-27T13:18:06;1.33;;;1.17;;
1164;SDS011;571;50.930;6.926;2023-02-27T13:20:43;1.10;;;0.90;;
1164;SDS011;571;50.930;6.926;2023-02-27T13:23:16;1.90;;;1.13;;
1164;SDS011;571;50.930;6.926;2023-02-27T13:25:48;1.83;;;1.00;;
1164;SDS011;571;50.930;6.926;2023-02-27T13:28:17;2.90;;;0.97;;
1164;SDS011;571;50.930;6.926;2023-02-27T13:31:00;1.37;;;1.23;;
1164;SDS011;571;50.930;6.926;2023-02-27T13:33:32;2.00;;;1.20;;
1164;SDS011;571;50.930;6.926;2023-02-27T13:36:06;1.03;;;0.93;;
1164;SDS011;571;50.930;6.926;2023-02-27T13:38:42;3.17;;;1.03;;
1164;SDS011;571;50.930;6.926;2023-02-27T13:50:04;2.40;;;1.10;;
1164;SDS011;571;50.930;6.926;2023-02-27T13:53:12;4.27;;;1.30;;
1164;SDS011;571;50.930;6.926;2023-02-27T13:55:43;2.60;;;1.00;;
1164;SDS011;571;50.930;6.926;2023-02-27T13:58:14;1.60;;;1.13;;
1164;SDS011;571;50.930;6.926;2023-02-27T14:00:52;2.80;;;1.00;;
1164;SDS011;571;50.930;6.926;2023-02-27T14:03:24;1.83;;;1.00;;
1164;SDS011;571;50.930;6.926;2023-02-27T14:05:55;1.43;;;0.83;;
1164;SDS011;571;50.930;6.926;2023-02-27T14:08:25;3.00;;;1.10;;
1164;SDS011;571;50.930;6.926;2023-02-27T14:10:55;1.50;;;0.90;;
1164;SDS011;571;50.930;6.926;2023-02-27T14:19:26;5.00;;;1.20;;
1164;SDS011;571;50.930;6.926;2023-02-27T14:22:28;2.27;;;1.33;;
1164;SDS011;571;50.930;6.926;2023-02-27T14:25:19;3.97;;;1.07;;
1164;SDS011;571;50.930;6.926;2023-02-27T14:27:52;1.47;;;0.80;;
1164;SDS011;571;50.930;6.926;2023-02-27T14:30:27;1.50;;;0.67;;
1164;SDS011;571;50.930;6.926;2023-02-27T14:33:05;1.23;;;0.90;;
1164;SDS011;571;50.930;6.926;2023-02-27T14:35:38;2.00;;;1.00;;
1164;SDS011;571;50.930;6.926;2023-02-27T14:38:16;1.60;;;0.90;;
1164;SDS011;571;50.930;6.926;2023-02-27T14:40:53;1.23;;;1.07;;
1164;SDS011;571;50.930;6.926;2023-02-27T14:43:31;1.30;;;0.80;;
1164;SDS011;571;50.930;6.926;2023-02-27T14:46:10;2.13;;;1.20;;
1164;SDS011;571;50.930;6.926;2023-02-27T14:48:45;1.47;;;0.80;;
1164;SDS011;571;50.930;6.926;2023-02-27T14:51:12;1.20;;;1.10;;
1164;SDS011;571;50.930;6.926;2023-02-27T14:53:40;3.23;;;2.93;;
1164;SDS011;571;50.930;6.926;2023-02-27T14:56:14;2.93;;;1.20;;
1164;SDS011;571;50.930;6.926;2023-02-27T14:58:45;1.60;;;0.90;;
1164;SDS011;571;50.930;6.926;2023-02-27T15:01:15;1.87;;;1.10;;
1164;SDS011;571;50.930;6.926;2023-02-27T15:03:44;2.50;;;1.23;;
1164;SDS011;571;50.930;6.926;2023-02-27T15:06:14;1.83;;;1.47;;
1164;SDS011;571;50.930;6.926;2023-02-27T15:08:44;1.93;;;1.67;;
1164;SDS011;571;50.930;6.926;2023-02-27T15:11:16;1.67;;;1.23;;
1164;SDS011;571;50.930;6.926;2023-02-27T15:13:44;2.97;;;1.47;;
1164;SDS011;571;50.930;6.926;2023-02-27T15:16:17;6.13;;;1.30;;
1164;SDS011;571;50.930;6.926;2023-02-27T15:18:55;1.30;;;0.93;;
1164;SDS011;571;50.930;6.926;2023-02-27T15:21:23;2.93;;;1.40;;
1164;SDS011;571;50.930;6.926;2023-02-27T15:23:52;4.83;;;1.83;;
1164;SDS011;571;50.930;6.926;2023-02-27T15:26:21;4.20;;;1.80;;
1164;SDS011;571;50.930;6.926;2023-02-27T15:28:48;4.40;;;2.10;;
1164;SDS011;571;50.930;6.926;2023-02-27T15:31:17;3.17;;;1.60;;
1164;SDS011;571;50.930;6.926;2023-02-27T15:33:46;4.30;;;1.40;;
1164;SDS011;571;50.930;6.926;2023-02-27T15:36:21;6.30;;;1.63;;
1164;SDS011;571;50.930;6.926;2023-02-27T15:39:01;2.23;;;1.30;;
1164;SDS011;571;50.930;6.926;2023-02-27T15:41:34;1.47;;;1.20;;
1164;SDS011;571;50.930;6.926;2023-02-27T15:44:02;3.07;;;1.30;;
1164;SDS011;571;50.930;6.926;2023-02-27T15:46:29;4.40;;;2.07;;
1164;SDS011;571;50.930;6.926;2023-02-27T15:48:57;1.30;;;1.20;;
1164;SDS011;571;50.930;6.926;2023-02-27T15:51:24;2.80;;;1.23;;
1164;SDS011;571;50.930;6.926;2023-02-27T15:53:53;1.50;;;1.23;;
1164;SDS011;571;50.930;6.926;2023-02-27T15:56:21;3.93;;;1.70;;
1164;SDS011;571;50.930;6.926;2023-02-27T15:58:53;5.20;;;1.77;;
1164;SDS011;571;50.930;6.926;2023-02-27T16:01:22;1.33;;;0.90;;
1164;SDS011;571;50.930;6.926;2023-02-27T16:03:51;3.67;;;2.43;;
1164;SDS011;571;50.930;6.926;2023-02-27T16:06:20;2.00;;;1.40;;
1164;SDS011;571;50.930;6.926;2023-02-27T16:08:51;4.00;;;1.47;;
1164;SDS011;571;50.930;6.926;2023-02-27T16:11:20;4.10;;;1.20;;
1164;SDS011;571;50.930;6.926;2023-02-27T16:13:49;2.27;;;1.30;;
1164;SDS011;571;50.930;6.926;2023-02-27T16:16:22;10.03;;;2.13;;
1164;SDS011;571;50.930;6.926;2023-02-27T16:18:53;2.57;;;1.73;;
1164;SDS011;571;50.930;6.926;2023-02-27T16:21:21;2.13;;;1.47;;
1164;SDS011;571;50.930;6.926;2023-02-27T16:23:48;1.47;;;1.20;;
1164;SDS011;571;50.930;6.926;2023-02-27T16:26:19;6.60;;;1.77;;
1164;SDS011;571;50.930;6.926;2023-02-27T16:28:52;2.23;;;1.60;;
1164;SDS011;571;50.930;6.926;2023-02-27T16:31:25;5.10;;;1.30;;
1164;SDS011;571;50.930;6.926;2023-02-27T16:33:54;3.17;;;1.30;;
1164;SDS011;571;50.930;6.926;2023-02-27T16:36:23;1.23;;;1.13;;
1164;SDS011;571;50.930;6.926;2023-02-27T16:38:50;4.97;;;1.57;;
1164;SDS011;571;50.930;6.926;2023-02-27T16:41:18;3.20;;;1.60;;
1164;SDS011;571;50.930;6.926;2023-02-27T16:43:46;3.60;;;1.73;;
1164;SDS011;571;50.930;6.926;2023-02-27T16:46:14;2.20;;;1.70;;
1164;SDS011;571;50.930;6.926;2023-02-27T16:48:46;3.10;;;2.10;;
1164;SDS011;571;50.930;6.926;2023-02-27T16:51:15;1.80;;;1.70;;
1164;SDS011;571;50.930;6.926;2023-02-27T16:53:45;4.17;;;2.27;;
1164;SDS011;571;50.930;6.926;2023-02-27T16:56:12;2.83;;;2.10;;
1164;SDS011;571;50.930;6.926;2023-02-27T16:58:39;4.80;;;1.80;;
1164;SDS011;571;50.930;6.926;2023-02-27T17:01:06;2.53;;;1.70;;
1164;SDS011;571;50.930;6.926;2023-02-27T17:03:33;1.60;;;1.50;;
1164;SDS011;571;50.930;6.926;2023-02-27T17:06:01;2.67;;;2.00;;
1164;SDS011;571;50.930;6.926;2023-02-27T17:08:28;4.33;;;2.20;;
1164;SDS011;571;50.930;6.926;2023-02-27T17:10:55;2.23;;;2.00;;
1164;SDS011;571;50.930;6.926;2023-02-27T17:13:23;2.63;;;1.67;;
1164;SDS011;571;50.930;6.926;2023-02-27T17:15:50;2.40;;;1.90;;
1164;SDS011;571;50.930;6.926;2023-02-27T17:18:16;6.10;;;2.00;;
1164;SDS011;571;50.930;6.926;2023-02-27T17:20:43;5.47;;;1.70;;
1164;SDS011;571;50.930;6.926;2023-02-27T17:23:11;9.57;;;2.10;;
1164;SDS011;571;50.930;6.926;2023-02-27T17:25:39;2.33;;;2.13;;
1164;SDS011;571;50.930;6.926;2023-02-27T17:28:06;4.67;;;1.93;;
1164;SDS011;571;50.930;6.926;2023-02-27T17:30:33;3.43;;;2.20;;
1164;SDS011;571;50.930;6.926;2023-02-27T17:33:00;3.43;;;2.30;;
1164;SDS011;571;50.930;6.926;2023-02-27T17:35:27;2.67;;;2.40;;
1164;SDS011;571;50.930;6.926;2023-02-27T17:37:55;3.90;;;2.20;;
1164;SDS011;571;50.930;6.926;2023-02-27T17:40:23;5.23;;;2.60;;
1164;SDS011;571;50.930;6.926;2023-02-27T17:42:50;2.30;;;2.00;;
1164;SDS011;571;50.930;6.926;2023-02-27T17:45:17;2.60;;;2.10;;
1164;SDS011;571;50.930;6.926;2023-02-27T17:47:45;4.90;;;1.90;;
1164;SDS011;571;50.930;6.926;2023-02-27T17:50:12;4.10;;;2.07;;
1164;SDS011;571;50.930;6.926;2023-02-27T17:52:39;2.20;;;2.10;;
1164;SDS011;571;50.930;6.926;2023-02-27T17:55:06;3.80;;;2.13;;
1164;SDS011;571;50.930;6.926;2023-02-27T17:57:35;3.33;;;1.90;;
1164;SDS011;571;50.930;6.926;2023-02-27T18:00:03;3.37;;;2.43;;
1164;SDS011;571;50.930;6.926;2023-02-27T18:02:30;2.20;;;2.00;;
1164;SDS011;571;50.930;6.926;2023-02-27T18:04:57;3.20;;;1.97;;
1164;SDS011;571;50.930;6.926;2023-02-27T18:07:24;5.43;;;4.13;;
1164;SDS011;571;50.930;6.926;2023-02-27T18:09:51;1.97;;;1.70;;
1164;SDS011;571;50.930;6.926;2023-02-27T18:12:17;3.77;;;2.50;;
1164;SDS011;571;50.930;6.926;2023-02-27T18:14:45;3.73;;;2.67;;
1164;SDS011;571;50.930;6.926;2023-02-27T18:17:13;7.73;;;2.60;;
1164;SDS011;571;50.930;6.926;2023-02-27T18:19:40;4.10;;;3.10;;
1164;SDS011;571;50.930;6.926;2023-02-27T18:22:07;2.80;;;2.33;;
1164;SDS011;571;50.930;6.926;2023-02-27T18:24:34;3.97;;;2.53;;
1164;SDS011;571;50.930;6.926;2023-02-27T18:27:02;3.03;;;2.47;;
1164;SDS011;571;50.930;6.926;2023-02-27T18:29:29;4.33;;;2.50;;
1164;SDS011;571;50.930;6.926;2023-02-27T18:31:57;4.07;;;3.50;;
1164;SDS011;571;50.930;6.926;2023-02-27T18:34:24;7.47;;;2.77;;
1164;SDS011;571;50.930;6.926;2023-02-27T18:36:51;2.70;;;2.23;;
1164;SDS011;571;50.930;6.926;2023-02-27T18:39:17;6.00;;;2.93;;
1164;SDS011;571;50.930;6.926;2023-02-27T18:41:46;3.77;;;2.43;;
1164;SDS011;571;50.930;6.926;2023-02-27T18:44:13;2.07;;;1.87;;
1164;SDS011;571;50.930;6.926;2023-02-27T18:46:40;6.30;;;3.10;;
1164;SDS011;571;50.930;6.926;2023-02-27T18:49:08;2.97;;;2.70;;
1164;SDS011;571;50.930;6.926;2023-02-27T18:51:34;3.60;;;2.50;;
1164;SDS011;571;50.930;6.926;2023-02-27T18:54:01;3.73;;;2.83;;
1164;SDS011;571;50.930;6.926;2023-02-27T18:56:29;3.23;;;2.60;;
1164;SDS011;571;50.930;6.926;2023-02-27T18:58:57;5.53;;;3.27;;
1164;SDS011;571;50.930;6.926;2023-02-27T19:01:27;3.40;;;2.77;;
1164;SDS011;571;50.930;6.926;2023-02-27T19:03:56;5.43;;;3.00;;
1164;SDS011;571;50.930;6.926;2023-02-27T19:06:28;6.80;;;2.80;;
1164;SDS011;571;50.930;6.926;2023-02-27T19:08:56;6.40;;;3.00;;
1164;SDS011;571;50.930;6.926;2023-02-27T19:11:23;4.33;;;3.17;;
1164;SDS011;571;50.930;6.926;2023-02-27T19:13:52;3.73;;;3.37;;
1164;SDS011;571;50.930;6.926;2023-02-27T19:16:19;4.70;;;2.80;;
1164;SDS011;571;50.930;6.926;2023-02-27T19:18:46;5.10;;;3.13;;
1164;SDS011;571;50.930;6.926;2023-02-27T19:21:12;4.10;;;2.83;;
1164;SDS011;571;50.930;6.926;2023-02-27T19:23:40;5.70;;;2.97;;
1164;SDS011;571;50.930;6.926;2023-02-27T19:26:07;3.57;;;3.07;;
1164;SDS011;571;50.930;6.926;2023-02-27T19:28:34;2.90;;;2.60;;
1164;SDS011;571;50.930;6.926;2023-02-27T19:31:04;6.60;;;2.97;;
1164;SDS011;571;50.930;6.926;2023-02-27T19:33:32;3.47;;;2.97;;
1164;SDS011;571;50.930;6.926;2023-02-27T19:35:58;4.07;;;2.70;;
1164;SDS011;571;50.930;6.926;2023-02-27T19:38:29;4.07;;;3.33;;
1164;SDS011;571;50.930;6.926;2023-02-27T19:40:59;5.10;;;3.17;;
1164;SDS011;571;50.930;6.926;2023-02-27T19:43:26;3.40;;;3.10;;
1164;SDS011;571;50.930;6.926;2023-02-27T19:45:53;3.90;;;2.90;;
1164;SDS011;571;50.930;6.926;2023-02-27T19:48:20;5.73;;;3.40;;
1164;SDS011;571;50.930;6.926;2023-02-27T19:51:24;3.63;;;3.33;;